Latest Weather Observations for Orbost

IDV60801

Issued at 10:02 pm EST Saturday 5 September 2015 (issued every 30 minutes, with the page automatically refreshed every 10 minutes)

About weather observations | Map of weather stations | Latest weather observations for VIC | Other Formats
Station Details ID: 084145 Name: ORBOST Lat: -37.69 Lon: 148.47 Height: 62.65 m
Data from the previous 72 hours. | See also: Recent months at Orbost
Date/Time
EST
Temp
°C
App
Temp
°C
Dew
Point
Rel
Hum
%
Delta-T
°C
Wind Press
QNH
hPa
Press
MSL
hPa
Rain
since 9 am
mm
Dir
 
Spd
km/h
Gust
km/h
Spd
kts
Gust
kts
05/10:00pm 6.7 5.4 5.8 94 0.4 WNW 2 2 1 1 1025.2 1025.2 0.0
05/09:30pm 7.3 5.3 6.2 93 0.5 NNE 6 6 3 3 1024.8 1024.8 0.0
05/09:00pm 7.2 5.1 6.0 92 0.5 NNE 6 7 3 4 1024.7 1024.7 0.0
05/08:30pm 8.2 6.1 6.8 91 0.7 N 7 7 4 4 1024.7 1024.7 0.0
05/08:00pm 8.3 6.8 6.8 90 0.7 NNE 4 4 2 2 1024.4 1024.4 0.0
05/07:30pm 8.1 6.2 6.7 91 0.6 NNE 6 6 3 3 1024.2 1024.2 0.0
05/07:00pm 8.9 8.1 6.5 85 1.1 CALM 0 0 0 0 1024.1 1024.1 0.0
05/06:30pm 10.2 8.8 7.1 81 1.5 WSW 4 7 2 4 1024.0 1024.0 0.0
05/06:00pm 10.7 10.0 6.8 77 1.8 CALM 0 4 0 2 1023.6 1023.7 0.0
05/05:30pm 11.3 9.4 6.6 73 2.2 S 6 9 3 5 1023.4 1023.5 0.0
05/05:00pm 11.9 9.8 6.6 70 2.5 SSW 7 11 4 6 1023.0 1023.1 0.0
05/04:30pm 12.0 9.3 5.6 65 3.0 SSW 9 15 5 8 1022.9 1023.0 0.0
05/04:00pm 12.3 9.7 6.1 66 2.9 SSW 9 17 5 9 1022.9 1023.0 0.0
05/03:30pm 13.0 9.9 7.2 68 2.8 SSW 13 17 7 9 1022.8 1022.9 0.0
05/03:00pm 13.1 9.7 6.0 62 3.4 SW 13 26 7 14 1022.7 1022.8 0.0
05/02:30pm 12.7 10.1 6.1 64 3.1 SW 9 15 5 8 1022.7 1022.8 0.0
05/02:00pm 12.9 10.2 5.8 62 3.3 WSW 9 17 5 9 1022.7 1022.8 0.0
05/01:30pm 12.0 7.9 4.2 59 3.5 SW 15 32 8 17 1022.8 1022.9 0.0
05/01:00pm 12.6 8.5 6.0 64 3.1 SW 17 22 9 12 1023.0 1023.1 0.0
05/12:30pm 13.4 9.8 6.7 64 3.2 WSW 15 20 8 11 1023.3 1023.4 0.0
05/12:00pm 12.6 9.0 6.9 68 2.7 W 15 24 8 13 1023.6 1023.7 0.0
05/11:30am 12.5 10.1 6.8 68 2.7 WNW 9 17 5 9 1023.9 1023.9 0.0
05/11:00am 11.7 8.5 7.0 73 2.2 W 13 20 7 11 1024.3 1024.3 0.0
05/10:30am 11.2 8.1 7.1 76 2.0 W 13 20 7 11 1024.5 1024.5 0.0
05/10:00am 10.9 7.3 6.8 76 1.9 WNW 15 22 8 12 1024.7 1024.7 0.0
05/09:30am 10.8 7.7 7.1 78 1.8 W 13 22 7 12 1024.9 1024.9 0.0
05/09:00am 10.5 8.2 5.9 73 2.1 W 7 13 4 7 1024.8 1024.8 0.0
05/08:30am 10.2 8.1 5.8 74 2.0 NW 6 9 3 5 1024.7 1024.7 0.0
05/08:00am 10.1 7.8 5.5 73 2.1 WNW 7 13 4 7 1024.4 1024.4 0.0
05/07:30am 9.9 7.5 5.3 73 2.1 NW 7 13 4 7 1023.9 1023.9 0.0
05/07:00am 9.6 7.1 4.8 72 2.1 NW 7 11 4 6 1023.5 1023.6 0.0
05/06:30am 9.5 6.2 4.7 72 2.1 NNW 11 17 6 9 1023.0 1023.1 0.0
05/06:00am 9.5 7.0 4.7 72 2.1 NW 7 13 4 7 1022.9 1023.0 0.0
05/05:30am 9.5 7.0 4.7 72 2.1 NW 7 9 4 5 1022.7 1022.8 0.0
05/05:00am 9.5 6.6 4.7 72 2.1 NW 9 13 5 7 1022.5 1022.6 0.0
05/04:30am 9.5 6.6 4.5 71 2.2 NW 9 15 5 8 1022.3 1022.4 0.0
05/04:00am 9.5 6.5 4.3 70 2.3 NW 9 15 5 8 1022.3 1022.4 0.0
05/03:30am 9.4 6.1 4.4 71 2.2 NW 11 19 6 10 1022.2 1022.3 0.0
05/03:00am 8.9 5.9 4.3 73 2.0 NW 9 13 5 7 1022.5 1022.6 0.0
05/02:30am 8.3 5.7 4.1 75 1.8 NW 7 13 4 7 1022.8 1022.9 0.0
05/02:00am 8.2 5.2 4.0 75 1.8 NW 9 15 5 8 1023.0 1023.1 0.0
05/01:30am 7.9 4.5 3.9 76 1.7 NNW 11 17 6 9 1023.3 1023.4 0.0
05/01:00am 8.2 4.8 4.0 75 1.8 NNW 11 17 6 9 1023.5 1023.6 0.0
05/12:30am 8.7 5.4 4.3 74 1.9 NW 11 17 6 9 1023.5 1023.6 0.0
05/12:00am 9.1 5.8 4.7 74 2.0 NW 11 17 6 9 1023.7 1023.8 0.0
 
Date/Time
EST
Temp
°C
App
Temp
°C
Dew
Point
Rel
Hum
%
Delta-T
°C
Wind Press
QNH
hPa
Press
MSL
hPa
Rain
since 9 am
mm
Dir
 
Spd
km/h
Gust
km/h
Spd
kts
Gust
kts
04/11:30pm 9.4 5.8 5.0 74 2.0 NW 13 24 7 13 1024.1 1024.1 0.0
04/11:00pm 9.1 5.9 4.9 75 1.9 NW 11 15 6 8 1024.3 1024.3 0.0
04/10:30pm 8.3 5.4 4.7 78 1.6 WNW 9 13 5 7 1024.4 1024.4 0.0
04/10:00pm 7.7 4.8 4.5 80 1.4 NW 9 13 5 7 1024.4 1024.4 0.0
04/09:30pm 7.1 4.6 4.6 84 1.1 NNW 7 11 4 6 1024.2 1024.2 0.0
04/09:00pm 7.2 4.4 5.2 87 0.9 N 9 11 5 6 1024.0 1024.0 0.0
04/08:30pm 7.5 4.8 5.5 87 0.9 N 9 9 5 5 1023.9 1023.9 0.0
04/08:00pm 7.7 5.5 5.2 84 1.1 N 6 7 3 4 1023.9 1023.9 0.0
04/07:30pm 7.9 5.6 5.0 82 1.3 NNW 6 7 3 4 1023.7 1023.8 0.0
04/07:00pm 8.5 6.8 5.8 83 1.2 NNW 4 6 2 3 1023.5 1023.6 0.0
04/06:30pm 8.3 6.5 5.2 81 1.4 NNW 4 6 2 3 1023.2 1023.3 0.0
04/06:00pm 9.3 7.8 5.1 75 1.9 W 2 2 1 1 1022.9 1023.0 0.0
04/05:30pm 10.2 8.3 5.0 70 2.4 WSW 4 6 2 3 1022.6 1022.7 0.0
04/05:00pm 11.1 8.7 5.4 68 2.6 SW 7 11 4 6 1022.3 1022.4 0.0
04/04:30pm 11.3 8.1 5.2 66 2.8 SW 11 17 6 9 1022.2 1022.3 0.0
04/04:00pm 11.8 9.1 5.7 66 2.8 SW 9 15 5 8 1022.1 1022.2 0.0
04/03:30pm 12.0 9.0 6.1 67 2.8 SW 11 20 6 11 1022.2 1022.3 0.0
04/03:00pm 11.5 8.7 5.2 65 2.9 SW 9 17 5 9 1022.3 1022.4 0.0
04/02:30pm 11.7 9.0 5.6 66 2.8 WSW 9 15 5 8 1022.4 1022.5 0.0
04/02:00pm 11.7 8.7 5.8 67 2.7 WSW 11 19 6 10 1022.4 1022.5 0.0
04/01:30pm 11.4 7.9 5.5 67 2.7 WSW 13 17 7 9 1022.8 1022.9 0.0
04/01:00pm 11.1 7.7 6.0 71 2.4 SW 13 19 7 10 1023.2 1023.3 0.0
04/12:30pm 11.2 7.8 5.9 70 2.5 WSW 13 22 7 12 1023.5 1023.6 0.0
04/12:00pm 11.0 7.8 5.3 68 2.6 W 11 17 6 9 1023.7 1023.8 0.0
04/11:30am 11.2 8.6 5.9 70 2.5 WSW 9 17 5 9 1024.0 1024.0 0.0
04/11:00am 10.6 6.7 5.2 69 2.5 W 15 22 8 12 1024.4 1024.4 0.0
04/10:30am 10.5 7.3 5.1 69 2.5 WSW 11 17 6 9 1024.6 1024.6 0.0
04/10:00am 10.5 7.1 6.1 74 2.0 W 13 19 7 10 1024.7 1024.7 0.0
04/09:30am 9.7 7.0 5.5 75 1.9 WNW 9 17 5 9 1024.8 1024.8 0.0
04/09:00am 9.2 5.9 4.8 74 2.0 WNW 11 20 6 11 1024.7 1024.7 6.6
04/08:30am 9.2 6.4 5.2 76 1.8 WNW 9 17 5 9 1024.6 1024.6 6.6
04/08:00am 8.7 5.5 5.1 78 1.6 NW 11 17 6 9 1024.4 1024.4 6.6
04/07:30am 8.6 5.9 5.4 80 1.4 NW 9 17 5 9 1024.2 1024.2 6.6
04/07:00am 8.6 6.0 5.9 83 1.2 NW 9 19 5 10 1023.6 1023.7 6.6
04/06:30am 8.5 5.5 6.1 85 1.1 NW 11 15 6 8 1023.1 1023.2 6.6
04/06:00am 8.4 5.9 6.7 89 0.8 NW 9 13 5 7 1022.9 1023.0 6.6
04/05:30am 8.4 6.4 7.2 92 0.6 NW 7 13 4 7 1022.7 1022.8 6.6
04/05:00am 8.4 6.1 7.3 93 0.5 WNW 9 17 5 9 1022.4 1022.5 6.6
04/04:30am 8.4 6.1 7.6 95 0.4 WNW 9 13 5 7 1022.1 1022.2 6.6
04/04:00am 8.6 6.4 7.8 95 0.4 WNW 9 15 5 8 1021.9 1022.0 6.6
04/03:30am 8.8 6.7 8.2 96 0.3 WNW 9 17 5 9 1021.8 1021.9 6.6
04/03:00am 9.1 6.7 8.5 96 0.3 WNW 11 19 6 10 1021.7 1021.8 6.4
04/02:30am 9.5 7.6 9.2 98 0.1 WNW 9 17 5 9 1021.4 1021.4 6.2
04/02:00am 10.1 9.3 9.8 98 0.2 WNW 4 6 2 3 1021.2 1021.2 6.2
04/01:30am 10.2 9.5 9.9 98 0.2 NW 4 6 2 3 1020.9 1020.9 6.2
04/01:00am 10.3 10.0 10.0 98 0.2 WNW 2 4 1 2 1021.0 1021.0 6.0
04/12:30am 10.5 10.6 10.2 98 0.2 CALM 0 0 0 0 1020.7 1020.7 6.0
04/12:00am 10.5 10.6 10.2 98 0.2 CALM 0 0 0 0 1020.6 1020.6 5.8
 
Date/Time
EST
Temp
°C
App
Temp
°C
Dew
Point
Rel
Hum
%
Delta-T
°C
Wind Press
QNH
hPa
Press
MSL
hPa
Rain
since 9 am
mm
Dir
 
Spd
km/h
Gust
km/h
Spd
kts
Gust
kts
03/11:30pm 10.6 10.7 10.3 98 0.2 CALM 0 0 0 0 1020.3 1020.3 5.8
03/11:00pm 10.6 10.3 10.1 97 0.3 WNW 2 2 1 1 1020.1 1020.1 5.8
03/10:30pm 10.6 10.3 10.1 97 0.3 W 2 4 1 2 1019.8 1019.8 5.8
03/10:00pm 10.9 10.3 10.4 97 0.3 ESE 4 4 2 2 1019.5 1019.5 5.8
03/09:30pm 10.9 11.1 10.4 97 0.3 CALM 0 0 0 0 1019.4 1019.4 5.8
03/09:00pm 11.0 11.2 10.4 96 0.3 CALM 0 4 0 2 1019.0 1019.0 5.8
03/08:30pm 11.2 10.1 10.6 96 0.3 E 7 11 4 6 1018.8 1018.8 5.8
03/08:00pm 11.3 10.4 10.7 96 0.3 S 6 13 3 7 1018.8 1018.8 5.2
03/07:30pm 10.8 10.6 10.3 97 0.3 NW 2 4 1 2 1018.1 1018.1 4.6
03/07:00pm 11.0 10.8 10.5 97 0.3 NW 2 4 1 2 1017.9 1017.9 4.6
03/06:30pm 11.3 10.8 10.8 97 0.3 WSW 4 7 2 4 1017.2 1017.2 4.6
03/06:00pm 11.2 10.1 10.6 96 0.3 WSW 7 15 4 8 1016.5 1016.5 4.6
03/05:30pm 11.3 9.4 10.5 95 0.4 WSW 11 17 6 9 1016.0 1016.0 4.2
03/05:00pm 12.1 9.0 10.3 89 0.9 WSW 17 24 9 13 1015.4 1015.4 0.6
03/04:30pm 12.8 9.8 10.5 86 1.2 WSW 17 26 9 14 1014.6 1014.6 0.2
03/04:00pm 12.3 8.6 10.0 86 1.2 WSW 20 32 11 17 1014.5 1014.5 0.2
03/03:30pm 12.6 8.9 10.3 86 1.2 SW 20 32 11 17 1014.0 1014.0 0.2
03/03:00pm 12.6 9.0 10.5 87 1.1 SW 20 33 11 18 1013.4 1013.4 0.2
03/02:30pm 12.4 7.6 10.3 87 1.1 SW 26 39 14 21 1012.6 1012.6 0.2
03/02:00pm 12.5 8.5 10.6 88 1.0 WSW 22 39 12 21 1012.0 1012.0 0.2
03/01:30pm 12.2 7.8 10.4 89 0.9 SW 24 39 13 21 1011.5 1011.5 0.2
03/01:00pm 12.0 8.0 10.6 91 0.7 WSW 22 37 12 20 1011.0 1011.0 0.2
03/12:30pm 12.6 8.0 11.2 91 0.7 SW 26 37 14 20 1010.6 1010.6 0.0
03/12:00pm 12.7 8.6 11.6 93 0.6 SW 24 35 13 19 1010.3 1010.3 0.0
03/11:30am 13.3 9.8 12.2 93 0.6 SSW 22 35 12 19 1009.8 1009.8 0.0
03/11:00am 13.6 10.6 12.5 93 0.6 SSW 20 26 11 14 1009.4 1009.4 0.0
03/10:30am 13.8 10.1 12.7 93 0.6 SSW 24 35 13 19 1009.0 1009.0 0.0
03/10:00am 13.6 10.6 12.7 94 0.5 SW 20 32 11 17 1008.7 1008.7 0.0
03/09:30am 13.0 12.0 12.4 96 0.3 W 9 15 5 8 1008.5 1008.5 0.0
03/09:00am 11.9 10.8 10.8 93 0.6 WNW 7 13 4 7 1008.1 1008.0 0.0
03/08:30am 11.3 9.6 10.0 92 0.7 NW 9 13 5 7 1008.1 1008.0 0.0
03/08:00am 10.7 8.9 9.5 92 0.6 NW 9 15 5 8 1007.8 1007.7 0.0
03/07:30am 10.6 9.2 9.5 93 0.6 NW 7 11 4 6 1007.2 1007.2 0.0
03/07:00am 10.3 8.4 9.2 93 0.5 WNW 9 15 5 8 1006.4 1006.4 0.0
03/06:30am 9.9 7.5 8.7 92 0.6 WNW 11 15 6 8 1006.2 1006.2 0.0
03/06:00am 9.5 7.3 7.8 89 0.8 NW 9 13 5 7 1006.0 1006.0 0.0
03/05:30am 8.9 6.9 7.0 88 0.9 W 7 11 4 6 1005.8 1005.8 0.0
03/05:00am 8.8 6.6 6.4 85 1.1 WNW 7 11 4 6 1005.8 1005.8 0.0
03/04:30am 9.5 7.0 6.6 82 1.4 NNW 9 13 5 7 1005.7 1005.7 0.0
03/04:00am 9.2 6.6 6.3 82 1.3 NNW 9 11 5 6 1005.7 1005.7 0.0
03/03:30am 9.7 6.4 6.4 80 1.5 NNW 13 17 7 9 1005.8 1005.8 0.0
03/03:00am 9.2 6.6 6.3 82 1.3 NNW 9 11 5 6 1005.7 1005.7 0.0
03/02:30am 9.6 7.1 6.5 81 1.4 NNW 9 13 5 7 1005.9 1005.9 0.0
03/02:00am 9.0 7.1 6.8 86 1.0 N 6 7 3 4 1006.0 1006.0 0.0
03/01:30am 8.4 6.4 6.9 90 0.7 NNW 7 9 4 5 1006.1 1006.1 0.0
03/01:00am 7.8 5.8 6.9 94 0.4 N 7 11 4 6 1006.9 1006.9 0.0
03/12:30am 7.6 5.7 6.5 93 0.5 SW 6 7 3 4 1007.0 1007.0 0.0
03/12:00am 8.8 7.4 7.4 91 0.7 N 4 6 2 3 1006.9 1006.9 0.0
 
Date/Time
EST
Temp
°C
App
Temp
°C
Dew
Point
Rel
Hum
%
Delta-T
°C
Wind Press
QNH
hPa
Press
MSL
hPa
Rain
since 9 am
mm
Dir
 
Spd
km/h
Gust
km/h
Spd
kts
Gust
kts
02/11:30pm 7.7 6.1 6.5 92 0.6 WNW 4 6 2 3 1006.9 1006.9 0.0
02/11:00pm 9.0 7.6 7.1 88 0.9 N 4 7 2 4 1006.9 1006.9 0.0
02/10:30pm 8.3 6.9 7.2 93 0.5 NW 4 7 2 4 1007.1 1007.1 0.0

Other Formats:

Comma delimited format used in spreadsheet applications
http://www.bom.gov.au/fwo/IDV60801/IDV60801.95918.axf

JavaScript Object Notation format (JSON) in row-major order
http://www.bom.gov.au/fwo/IDV60801/IDV60801.95918.json